Time,TemperatureF,DewpointF,PressureIn,WindDirection,WindDirectionDegrees,WindSpeedMPH,WindSpeedGustMPH,Humidity,HourlyPrecipIn,Conditions,Clouds,dailyrainin,SoftwareType,DateUTC
2013-05-24 00:01:00,63.9,61.5,29.75,SW,217,3.0,7.0,92,0.00,,,0.02,Wunderground v.1.13,2013-05-24 04:01:00,
2013-05-24 00:02:00,63.9,61.5,29.75,SW,217,1.0,7.0,92,0.49,,,0.01,Wunderground v.1.13,2013-05-24 04:02:00,
2013-05-24 00:03:00,63.9,61.5,29.75,SSW,194,2.0,7.0,92,0.49,,,0.01,Wunderground v.1.13,2013-05-24 04:03:00,
2013-05-24 00:05:00,63.9,61.5,29.75,SSW,194,0.0,3.0,92,0.17,,,0.01,Wunderground v.1.13,2013-05-24 04:05:00,
2013-05-24 00:07:00,63.8,61.4,29.75,SSW,194,0.0,3.0,92,0.12,,,0.01,Wunderground v.1.13,2013-05-24 04:07:00,
2013-05-24 00:13:00,63.7,61.3,29.74,SSW,194,0.0,1.0,92,0.05,,,0.01,Wunderground v.1.13,2013-05-24 04:13:00,
2013-05-24 00:19:00,63.6,61.2,29.74,SSW,194,0.0,0.0,92,0.23,,,0.03,Wunderground v.1.13,2013-05-24 04:19:00,
2013-05-24 00:25:00,63.3,60.9,29.74,SSW,194,0.0,0.0,92,0.41,,,0.07,Wunderground v.1.13,2013-05-24 04:25:00,
2013-05-24 00:30:00,63.2,60.8,29.74,SSW,194,0.0,0.0,92,0.09,,,0.07,Wunderground v.1.13,2013-05-24 04:30:00,
2013-05-24 00:36:00,63.0,60.6,29.73,SSW,194,0.0,0.0,92,0.05,,,0.07,Wunderground v.1.13,2013-05-24 04:36:00,
2013-05-24 00:41:00,62.9,60.5,29.73,SSW,194,0.0,0.0,92,0.00,,,0.07,Wunderground v.1.13,2013-05-24 04:41:00,
2013-05-24 00:47:00,62.8,60.4,29.73,SSW,194,0.0,0.0,92,0.00,,,0.08,Wunderground v.1.13,2013-05-24 04:47:00,
2013-05-24 00:53:00,62.7,60.3,29.73,SSW,194,0.0,0.0,92,0.13,,,0.09,Wunderground v.1.13,2013-05-24 04:53:00,
2013-05-24 00:58:00,62.7,60.3,29.73,SSW,194,0.0,0.0,92,0.09,,,0.09,Wunderground v.1.13,2013-05-24 04:58:00,
2013-05-24 01:04:00,62.6,60.2,29.72,SSW,194,0.0,0.0,92,0.05,,,0.09,Wunderground v.1.13,2013-05-24 05:04:00,
2013-05-24 01:09:00,62.5,60.4,29.72,SSW,194,0.0,0.0,93,0.00,,,0.09,Wunderground v.1.13,2013-05-24 05:09:00,
2013-05-24 01:14:00,62.5,60.4,29.72,SSW,194,0.0,0.0,93,0.00,,,0.09,Wunderground v.1.13,2013-05-24 05:14:00,
2013-05-24 01:20:00,62.4,60.3,29.72,SSW,194,0.0,0.0,93,0.00,,,0.09,Wunderground v.1.13,2013-05-24 05:20:00,
2013-05-24 01:26:00,62.3,60.2,29.72,SSW,194,0.0,0.0,93,0.00,,,0.09,Wunderground v.1.13,2013-05-24 05:26:00,
2013-05-24 01:32:00,62.3,60.2,29.72,SSW,194,0.0,0.0,93,0.00,,,0.09,Wunderground v.1.13,2013-05-24 05:32:00,
2013-05-24 01:38:00,62.2,60.2,29.72,SSW,194,0.0,0.0,93,0.00,,,0.09,Wunderground v.1.13,2013-05-24 05:38:00,
2013-05-24 01:43:00,62.2,60.2,29.72,SSW,194,0.0,0.0,93,0.00,,,0.09,Wunderground v.1.13,2013-05-24 05:43:00,
2013-05-24 01:49:00,62.3,60.2,29.71,SSW,194,0.0,0.0,93,0.00,,,0.09,Wunderground v.1.13,2013-05-24 05:49:00,
2013-05-24 01:55:00,62.3,60.2,29.71,SSW,194,0.0,0.0,93,0.00,,,0.09,Wunderground v.1.13,2013-05-24 05:55:00,
2013-05-24 02:01:00,62.2,60.2,29.71,SSW,194,0.0,0.0,93,0.00,,,0.09,Wunderground v.1.13,2013-05-24 06:01:00,
2013-05-24 02:06:00,62.3,60.2,29.71,SSW,194,0.0,0.0,93,0.00,,,0.09,Wunderground v.1.13,2013-05-24 06:06:00,
2013-05-24 02:12:00,62.3,60.2,29.71,SSW,194,0.0,0.0,93,0.00,,,0.09,Wunderground v.1.13,2013-05-24 06:12:00,
2013-05-24 02:17:00,62.3,60.2,29.70,SSW,194,0.0,0.0,93,0.00,,,0.10,Wunderground v.1.13,2013-05-24 06:17:00,
2013-05-24 02:22:00,62.3,60.2,29.70,SSW,194,0.0,0.0,93,0.11,,,0.11,Wunderground v.1.13,2013-05-24 06:22:00,
2013-05-24 02:27:00,62.3,60.2,29.70,SSW,194,0.0,0.0,93,0.08,,,0.12,Wunderground v.1.13,2013-05-24 06:27:00,
2013-05-24 02:33:00,62.4,60.3,29.70,SSW,194,0.0,0.0,93,0.13,,,0.13,Wunderground v.1.13,2013-05-24 06:33:00,
2013-05-24 02:38:00,62.4,60.3,29.70,WNW,286,3.0,3.0,93,0.09,,,0.13,Wunderground v.1.13,2013-05-24 06:38:00,
2013-05-24 02:43:00,62.3,60.2,29.69,WSW,244,0.0,4.0,93,0.08,,,0.14,Wunderground v.1.13,2013-05-24 06:43:00,
2013-05-24 02:48:00,62.2,60.2,29.69,WSW,248,0.0,1.0,93,0.08,,,0.15,Wunderground v.1.13,2013-05-24 06:48:00,
2013-05-24 02:53:00,62.1,60.1,29.69,WSW,249,0.0,1.0,93,0.08,,,0.15,Wunderground v.1.13,2013-05-24 06:53:00,
2013-05-24 02:58:00,62.1,60.1,29.69,WSW,249,0.0,0.0,93,0.05,,,0.15,Wunderground v.1.13,2013-05-24 06:58:00,
2013-05-24 03:03:00,62.0,60.0,29.69,WSW,249,0.0,0.0,93,0.00,,,0.15,Wunderground v.1.13,2013-05-24 07:03:00,
2013-05-24 03:09:00,62.0,60.0,29.69,WSW,249,0.0,0.0,93,0.00,,,0.16,Wunderground v.1.13,2013-05-24 07:09:00,
2013-05-24 03:14:00,62.0,60.0,29.68,WSW,249,0.0,0.0,93,0.00,,,0.16,Wunderground v.1.13,2013-05-24 07:14:00,
2013-05-24 03:19:00,61.9,59.9,29.69,WSW,249,0.0,0.0,93,0.00,,,0.16,Wunderground v.1.13,2013-05-24 07:19:00,
2013-05-24 03:24:00,61.9,59.9,29.68,WSW,249,0.0,0.0,93,0.00,,,0.16,Wunderground v.1.13,2013-05-24 07:24:00,
2013-05-24 03:29:00,61.8,59.8,29.68,WSW,249,0.0,0.0,93,0.00,,,0.16,Wunderground v.1.13,2013-05-24 07:29:00,
2013-05-24 03:35:00,61.7,59.7,29.68,WSW,249,0.0,0.0,93,0.00,,,0.17,Wunderground v.1.13,2013-05-24 07:35:00,
2013-05-24 03:40:00,61.6,59.6,29.68,WSW,249,0.0,0.0,93,0.00,,,0.17,Wunderground v.1.13,2013-05-24 07:40:00,
2013-05-24 03:45:00,61.5,59.5,29.68,WSW,249,0.0,0.0,93,0.07,,,0.18,Wunderground v.1.13,2013-05-24 07:45:00,
2013-05-24 03:51:00,61.5,59.5,29.68,WSW,249,0.0,0.0,93,0.13,,,0.19,Wunderground v.1.13,2013-05-24 07:51:00,
2013-05-24 03:56:00,61.4,59.4,29.68,WSW,249,0.0,0.0,93,0.10,,,0.20,Wunderground v.1.13,2013-05-24 07:56:00,
2013-05-24 04:01:00,61.3,59.3,29.68,WSW,249,0.0,0.0,93,0.11,,,0.21,Wunderground v.1.13,2013-05-24 08:01:00,
2013-05-24 04:07:00,61.2,59.2,29.68,WSW,249,0.0,0.0,93,0.23,,,0.23,Wunderground v.1.13,2013-05-24 08:07:00,
2013-05-24 04:12:00,61.1,59.1,29.68,WSW,249,0.0,0.0,93,0.11,,,0.24,Wunderground v.1.13,2013-05-24 08:12:00,
2013-05-24 04:17:00,60.9,58.9,29.68,WSW,249,0.0,0.0,93,0.20,,,0.25,Wunderground v.1.13,2013-05-24 08:17:00,
2013-05-24 04:22:00,60.8,58.8,29.68,WSW,249,0.0,0.0,93,0.78,,,0.29,Wunderground v.1.13,2013-05-24 08:22:00,
2013-05-24 04:27:00,60.6,58.6,29.68,WSW,249,0.0,0.0,93,0.28,,,0.34,Wunderground v.1.13,2013-05-24 08:27:00,
2013-05-24 04:32:00,60.5,58.5,29.68,WSW,249,0.0,0.0,93,0.12,,,0.35,Wunderground v.1.13,2013-05-24 08:32:00,
2013-05-24 04:38:00,60.3,58.3,29.68,WSW,249,0.0,0.0,93,0.17,,,0.37,Wunderground v.1.13,2013-05-24 08:38:00,
2013-05-24 04:43:00,60.3,58.3,29.68,WSW,249,0.0,0.0,93,0.09,,,0.37,Wunderground v.1.13,2013-05-24 08:43:00,
2013-05-24 04:48:00,60.2,58.2,29.68,WSW,249,0.0,0.0,93,0.20,,,0.39,Wunderground v.1.13,2013-05-24 08:48:00,
2013-05-24 04:53:00,60.2,58.2,29.67,WSW,249,0.0,0.0,93,0.11,,,0.39,Wunderground v.1.13,2013-05-24 08:53:00,
2013-05-24 04:59:00,60.2,58.2,29.67,WSW,249,0.0,0.0,93,0.09,,,0.40,Wunderground v.1.13,2013-05-24 08:59:00,
2013-05-24 05:04:00,60.2,58.2,29.67,WSW,249,0.0,0.0,93,0.07,,,0.40,Wunderground v.1.13,2013-05-24 09:04:00,
2013-05-24 05:09:00,60.2,58.2,29.68,WSW,249,0.0,0.0,93,0.04,,,0.40,Wunderground v.1.13,2013-05-24 09:09:00,
2013-05-24 05:15:00,60.1,58.1,29.68,WSW,249,0.0,0.0,93,0.00,,,0.40,Wunderground v.1.13,2013-05-24 09:15:00,
2013-05-24 05:20:00,60.1,58.1,29.67,WSW,249,0.0,0.0,93,0.00,,,0.41,Wunderground v.1.13,2013-05-24 09:20:00,
2013-05-24 05:25:00,60.0,58.0,29.67,WSW,249,0.0,0.0,93,0.00,,,0.41,Wunderground v.1.13,2013-05-24 09:25:00,
2013-05-24 05:30:00,60.0,58.0,29.67,WSW,249,0.0,0.0,93,0.00,,,0.41,Wunderground v.1.13,2013-05-24 09:30:00,
2013-05-24 05:35:00,60.0,58.0,29.66,WSW,249,0.0,0.0,93,0.00,,,0.41,Wunderground v.1.13,2013-05-24 09:35:00,
2013-05-24 05:40:00,59.9,57.9,29.66,WSW,249,0.0,0.0,93,0.00,,,0.42,Wunderground v.1.13,2013-05-24 09:40:00,
2013-05-24 05:46:00,60.0,58.0,29.66,WSW,249,0.0,0.0,93,0.00,,,0.42,Wunderground v.1.13,2013-05-24 09:46:00,
2013-05-24 05:51:00,60.0,58.0,29.66,WSW,249,0.0,0.0,93,0.05,,,0.43,Wunderground v.1.13,2013-05-24 09:51:00,
2013-05-24 05:56:00,59.9,57.9,29.64,WSW,249,0.0,0.0,93,0.05,,,0.43,Wunderground v.1.13,2013-05-24 09:56:00,
2013-05-24 06:01:00,59.9,57.9,29.64,WSW,249,2.0,4.0,93,0.05,,,0.43,Wunderground v.1.13,2013-05-24 10:01:00,
2013-05-24 06:06:00,59.9,57.9,29.63,WSW,249,0.0,1.0,93,0.00,,,0.43,Wunderground v.1.13,2013-05-24 10:06:00,
2013-05-24 06:11:00,59.9,57.9,29.64,West,265,3.0,3.0,93,0.00,,,0.43,Wunderground v.1.13,2013-05-24 10:11:00,
2013-05-24 06:17:00,59.9,57.9,29.66,West,267,0.0,1.0,93,0.00,,,0.43,Wunderground v.1.13,2013-05-24 10:17:00,
2013-05-24 06:22:00,60.0,58.0,29.66,SW,222,1.0,4.0,93,0.00,,,0.44,Wunderground v.1.13,2013-05-24 10:22:00,
2013-05-24 06:28:00,60.0,58.0,29.66,SW,224,0.0,0.0,93,0.00,,,0.44,Wunderground v.1.13,2013-05-24 10:28:00,
2013-05-24 06:33:00,60.1,58.1,29.66,NW,325,0.0,1.0,93,0.00,,,0.44,Wunderground v.1.13,2013-05-24 10:33:00,
2013-05-24 06:38:00,60.2,58.2,29.67,NNW,333,0.0,3.0,93,0.00,,,0.44,Wunderground v.1.13,2013-05-24 10:38:00,
2013-05-24 06:43:00,60.2,58.2,29.66,West,281,0.0,1.0,93,0.00,,,0.44,Wunderground v.1.13,2013-05-24 10:43:00,
2013-05-24 06:49:00,60.3,58.3,29.67,West,280,0.0,1.0,93,0.00,,,0.44,Wunderground v.1.13,2013-05-24 10:49:00,
2013-05-24 06:54:00,60.3,58.3,29.67,West,281,0.0,0.0,93,0.00,,,0.44,Wunderground v.1.13,2013-05-24 10:54:00,
2013-05-24 06:59:00,60.4,58.4,29.67,NNE,21,0.0,2.0,93,0.00,,,0.44,Wunderground v.1.13,2013-05-24 10:59:00,
2013-05-24 07:04:00,60.4,58.4,29.67,NNE,21,0.0,0.0,93,0.00,,,0.44,Wunderground v.1.13,2013-05-24 11:04:00,
2013-05-24 07:09:00,60.4,58.4,29.67,NNE,21,0.0,0.0,93,0.00,,,0.44,Wunderground v.1.13,2013-05-24 11:09:00,
2013-05-24 07:14:00,60.6,58.9,29.67,NNE,21,0.0,0.0,94,0.00,,,0.44,Wunderground v.1.13,2013-05-24 11:14:00,
2013-05-24 07:19:00,60.7,59.0,29.67,NNE,21,0.0,0.0,94,0.00,,,0.44,Wunderground v.1.13,2013-05-24 11:19:00,
2013-05-24 07:24:00,60.8,59.1,29.67,NNE,21,0.0,1.0,94,0.00,,,0.44,Wunderground v.1.13,2013-05-24 11:24:00,
2013-05-24 07:29:00,60.7,59.0,29.67,NNE,28,0.0,1.0,94,0.00,,,0.44,Wunderground v.1.13,2013-05-24 11:29:00,
2013-05-24 07:34:00,60.7,59.0,29.68,NNE,29,0.0,0.0,94,0.00,,,0.44,Wunderground v.1.13,2013-05-24 11:34:00,
2013-05-24 07:39:00,60.8,59.1,29.68,NNE,29,0.0,0.0,94,0.00,,,0.44,Wunderground v.1.13,2013-05-24 11:39:00,
2013-05-24 07:44:00,60.8,59.1,29.68,NE,37,0.0,1.0,94,0.00,,,0.44,Wunderground v.1.13,2013-05-24 11:44:00,
2013-05-24 07:49:00,60.9,59.2,29.68,NE,37,0.0,2.0,94,0.00,,,0.44,Wunderground v.1.13,2013-05-24 11:49:00,
2013-05-24 07:54:00,61.0,59.0,29.68,NE,37,0.0,1.0,93,0.00,,,0.44,Wunderground v.1.13,2013-05-24 11:54:00,
2013-05-24 07:59:00,60.9,58.9,29.68,SW,220,0.0,3.0,93,0.00,,,0.44,Wunderground v.1.13,2013-05-24 11:59:00,
2013-05-24 08:04:00,60.9,58.9,29.68,SW,220,0.0,1.0,93,0.00,,,0.44,Wunderground v.1.13,2013-05-24 12:04:00,
2013-05-24 08:09:00,61.1,59.1,29.69,SW,221,0.0,1.0,93,0.00,,,0.44,Wunderground v.1.13,2013-05-24 12:09:00,
2013-05-24 08:14:00,61.2,59.5,29.69,SW,225,0.0,2.0,94,0.00,,,0.44,Wunderground v.1.13,2013-05-24 12:14:00,
2013-05-24 08:20:00,61.3,59.6,29.69,SW,225,0.0,0.0,94,0.00,,,0.44,Wunderground v.1.13,2013-05-24 12:20:00,
2013-05-24 08:25:00,61.1,59.1,29.69,South,186,0.0,0.0,93,0.00,,,0.44,Wunderground v.1.13,2013-05-24 12:25:00,
2013-05-24 08:30:00,61.1,59.1,29.69,NE,45,0.0,1.0,93,0.00,,,0.44,Wunderground v.1.13,2013-05-24 12:30:00,
2013-05-24 08:35:00,60.9,58.9,29.70,ENE,61,0.0,1.0,93,0.00,,,0.44,Wunderground v.1.13,2013-05-24 12:35:00,
2013-05-24 08:41:00,60.8,58.8,29.70,East,88,0.0,1.0,93,0.00,,,0.44,Wunderground v.1.13,2013-05-24 12:41:00,
2013-05-24 08:46:00,60.6,58.6,29.70,WSW,253,0.0,3.0,93,0.00,,,0.44,Wunderground v.1.13,2013-05-24 12:46:00,
2013-05-24 08:51:00,60.4,58.4,29.70,ESE,106,0.0,4.0,93,0.00,,,0.44,Wunderground v.1.13,2013-05-24 12:51:00,
2013-05-24 08:56:00,60.1,58.1,29.71,NE,38,2.0,4.0,93,0.00,,,0.44,Wunderground v.1.13,2013-05-24 12:56:00,
2013-05-24 09:01:00,59.6,57.6,29.72,East,79,0.0,6.0,93,0.00,,,0.44,Wunderground v.1.13,2013-05-24 13:01:00,
2013-05-24 09:06:00,59.0,56.7,29.72,NNW,330,3.0,4.0,92,0.00,,,0.44,Wunderground v.1.13,2013-05-24 13:06:00,
2013-05-24 09:11:00,58.6,56.3,29.72,NE,36,5.0,5.0,92,0.00,,,0.44,Wunderground v.1.13,2013-05-24 13:11:00,
2013-05-24 09:17:00,58.0,55.4,29.72,ESE,119,3.0,3.0,91,0.00,,,0.44,Wunderground v.1.13,2013-05-24 13:17:00,
2013-05-24 09:22:00,57.3,54.7,29.73,ENE,68,2.0,11.0,91,0.00,,,0.45,Wunderground v.1.13,2013-05-24 13:22:00,
2013-05-24 09:27:00,57.0,54.4,29.73,NE,43,3.0,3.0,91,0.00,,,0.45,Wunderground v.1.13,2013-05-24 13:27:00,
2013-05-24 09:33:00,56.6,54.0,29.75,NE,40,2.0,5.0,91,0.00,,,0.45,Wunderground v.1.13,2013-05-24 13:33:00,
2013-05-24 09:38:00,56.3,53.4,29.75,NE,55,1.0,6.0,90,0.00,,,0.45,Wunderground v.1.13,2013-05-24 13:38:00,
2013-05-24 09:43:00,56.0,53.1,29.75,ENE,59,0.0,2.0,90,0.00,,,0.45,Wunderground v.1.13,2013-05-24 13:43:00,
2013-05-24 09:48:00,56.0,53.4,29.75,NW,325,2.0,5.0,91,0.00,,,0.45,Wunderground v.1.13,2013-05-24 13:48:00,
2013-05-24 09:53:00,55.7,52.8,29.75,ENE,60,3.0,7.0,90,0.00,,,0.45,Wunderground v.1.13,2013-05-24 13:53:00,
2013-05-24 09:58:00,55.1,52.2,29.76,WSW,249,2.0,6.0,90,0.00,,,0.45,Wunderground v.1.13,2013-05-24 13:58:00,
2013-05-24 10:04:00,54.4,51.2,29.76,NNE,23,0.0,9.0,89,0.00,,,0.45,Wunderground v.1.13,2013-05-24 14:04:00,
2013-05-24 10:09:00,54.2,51.3,29.77,East,92,0.0,4.0,90,0.00,,,0.45,Wunderground v.1.13,2013-05-24 14:09:00,
2013-05-24 10:14:00,53.7,50.5,29.77,NE,34,6.0,6.0,89,0.00,,,0.45,Wunderground v.1.13,2013-05-24 14:14:00,
2013-05-24 10:19:00,53.2,50.0,29.77,SE,134,0.0,11.0,89,0.00,,,0.45,Wunderground v.1.13,2013-05-24 14:19:00,
2013-05-24 10:24:00,52.8,49.6,29.77,NW,311,2.0,7.0,89,0.00,,,0.45,Wunderground v.1.13,2013-05-24 14:24:00,
2013-05-24 10:30:00,52.5,49.4,29.77,South,182,4.0,5.0,89,0.00,,,0.45,Wunderground v.1.13,2013-05-24 14:30:00,
2013-05-24 10:35:00,52.3,49.2,29.78,NE,44,2.0,12.0,89,0.00,,,0.45,Wunderground v.1.13,2013-05-24 14:35:00,
2013-05-24 10:40:00,52.2,49.1,29.78,NE,52,0.0,14.0,89,0.00,,,0.45,Wunderground v.1.13,2013-05-24 14:40:00,
2013-05-24 10:46:00,51.9,48.8,29.79,NNW,336,0.0,3.0,89,0.00,,,0.45,Wunderground v.1.13,2013-05-24 14:46:00,
2013-05-24 10:51:00,51.7,48.3,29.79,SSE,154,3.0,3.0,88,0.00,,,0.45,Wunderground v.1.13,2013-05-24 14:51:00,
2013-05-24 10:56:00,51.4,48.0,29.79,North,355,2.0,4.0,88,0.00,,,0.45,Wunderground v.1.13,2013-05-24 14:56:00,
2013-05-24 11:01:00,51.4,48.0,29.79,WSW,250,5.0,6.0,88,0.00,,,0.45,Wunderground v.1.13,2013-05-24 15:01:00,
2013-05-24 11:06:00,51.4,47.7,29.80,NE,52,4.0,4.0,87,0.00,,,0.45,Wunderground v.1.13,2013-05-24 15:06:00,
2013-05-24 11:11:00,51.5,48.1,29.80,NW,318,0.0,7.0,88,0.00,,,0.45,Wunderground v.1.13,2013-05-24 15:11:00,
2013-05-24 11:16:00,51.5,47.5,29.80,NW,307,3.0,9.0,86,0.00,,,0.45,Wunderground v.1.13,2013-05-24 15:16:00,
2013-05-24 11:21:00,51.5,47.5,29.80,SSW,210,1.0,3.0,86,0.00,,,0.45,Wunderground v.1.13,2013-05-24 15:21:00,
2013-05-24 11:26:00,51.7,47.6,29.80,East,96,1.0,4.0,86,0.00,,,0.45,Wunderground v.1.13,2013-05-24 15:26:00,
2013-05-24 11:31:00,51.8,47.7,29.81,NNW,341,2.0,6.0,86,0.00,,,0.45,Wunderground v.1.13,2013-05-24 15:31:00,
2013-05-24 11:37:00,51.7,47.6,29.81,SE,132,2.0,7.0,86,0.00,,,0.45,Wunderground v.1.13,2013-05-24 15:37:00,
2013-05-24 11:42:00,51.5,47.5,29.82,NNE,30,5.0,6.0,86,0.00,,,0.45,Wunderground v.1.13,2013-05-24 15:42:00,
2013-05-24 11:47:00,51.2,47.2,29.82,WNW,289,3.0,9.0,86,0.00,,,0.45,Wunderground v.1.13,2013-05-24 15:47:00,
2013-05-24 11:52:00,50.8,46.8,29.82,SW,225,2.0,3.0,86,0.00,,,0.45,Wunderground v.1.13,2013-05-24 15:52:00,
2013-05-24 11:58:00,50.4,46.1,29.83,WSW,251,4.0,11.0,85,0.00,,,0.45,Wunderground v.1.13,2013-05-24 15:58:00,
2013-05-24 12:03:00,49.9,45.9,29.83,ESE,118,3.0,10.0,86,0.00,,,0.45,Wunderground v.1.13,2013-05-24 16:03:00,
2013-05-24 12:08:00,49.6,45.3,29.83,ENE,69,3.0,11.0,85,0.00,,,0.45,Wunderground v.1.13,2013-05-24 16:08:00,
2013-05-24 12:14:00,49.6,45.6,29.83,NNE,18,1.0,5.0,86,0.00,,,0.45,Wunderground v.1.13,2013-05-24 16:14:00,
2013-05-24 12:19:00,49.5,45.5,29.83,WSW,243,2.0,6.0,86,0.00,,,0.45,Wunderground v.1.13,2013-05-24 16:19:00,
2013-05-24 12:24:00,49.4,45.4,29.83,ENE,76,0.0,11.0,86,0.00,,,0.45,Wunderground v.1.13,2013-05-24 16:24:00,
2013-05-24 12:29:00,49.3,45.3,29.84,NNE,14,0.0,5.0,86,0.00,,,0.45,Wunderground v.1.13,2013-05-24 16:29:00,
2013-05-24 12:34:00,49.1,45.4,29.84,NE,51,2.0,10.0,87,0.00,,,0.45,Wunderground v.1.13,2013-05-24 16:34:00,
2013-05-24 12:39:00,49.0,45.3,29.84,WSW,237,1.0,10.0,87,0.00,,,0.45,Wunderground v.1.13,2013-05-24 16:39:00,
2013-05-24 12:45:00,49.0,45.3,29.84,ESE,105,0.0,2.0,87,0.00,,,0.45,Wunderground v.1.13,2013-05-24 16:45:00,
2013-05-24 12:50:00,49.2,45.5,29.84,NW,304,2.0,2.0,87,0.00,,,0.45,Wunderground v.1.13,2013-05-24 16:50:00,
2013-05-24 12:55:00,49.2,45.2,29.84,NE,52,1.0,2.0,86,0.00,,,0.45,Wunderground v.1.13,2013-05-24 16:55:00,
2013-05-24 13:00:00,49.3,45.3,29.84,SE,125,2.0,3.0,86,0.00,,,0.45,Wunderground v.1.13,2013-05-24 17:00:00,
2013-05-24 13:06:00,49.5,45.5,29.84,NNE,28,5.0,6.0,86,0.00,,,0.45,Wunderground v.1.13,2013-05-24 17:06:00,
2013-05-24 13:11:00,49.7,45.7,29.84,NNW,334,5.0,6.0,86,0.00,,,0.45,Wunderground v.1.13,2013-05-24 17:11:00,
2013-05-24 13:16:00,49.9,45.6,29.84,ESE,120,3.0,5.0,85,0.00,,,0.45,Wunderground v.1.13,2013-05-24 17:16:00,
2013-05-24 13:21:00,49.9,45.6,29.85,NNW,340,3.0,5.0,85,0.00,,,0.45,Wunderground v.1.13,2013-05-24 17:21:00,
2013-05-24 13:26:00,49.7,45.4,29.85,SE,129,0.0,4.0,85,0.00,,,0.45,Wunderground v.1.13,2013-05-24 17:26:00,
2013-05-24 13:32:00,49.7,45.4,29.86,NW,324,1.0,3.0,85,0.00,,,0.45,Wunderground v.1.13,2013-05-24 17:32:00,
2013-05-24 13:37:00,49.7,45.7,29.86,East,79,4.0,6.0,86,0.00,,,0.45,Wunderground v.1.13,2013-05-24 17:37:00,
2013-05-24 13:42:00,49.6,45.3,29.86,North,351,6.0,10.0,85,0.00,,,0.45,Wunderground v.1.13,2013-05-24 17:42:00,
2013-05-24 13:47:00,49.4,45.4,29.86,West,275,7.0,7.0,86,0.00,,,0.45,Wunderground v.1.13,2013-05-24 17:47:00,
2013-05-24 13:52:00,49.2,44.9,29.86,NE,50,3.0,6.0,85,0.00,,,0.45,Wunderground v.1.13,2013-05-24 17:52:00,
2013-05-24 13:57:00,49.1,45.1,29.86,NNE,19,4.0,4.0,86,0.00,,,0.45,Wunderground v.1.13,2013-05-24 17:57:00,
2013-05-24 14:03:00,49.0,45.0,29.86,NNE,17,6.0,7.0,86,0.00,,,0.45,Wunderground v.1.13,2013-05-24 18:03:00,
2013-05-24 14:08:00,48.7,44.7,29.86,NNE,26,4.0,7.0,86,0.00,,,0.45,Wunderground v.1.13,2013-05-24 18:08:00,
2013-05-24 14:14:00,48.7,44.7,29.86,SSE,168,3.0,5.0,86,0.00,,,0.45,Wunderground v.1.13,2013-05-24 18:14:00,
2013-05-24 14:19:00,48.7,44.4,29.87,ENE,60,3.0,7.0,85,0.00,,,0.45,Wunderground v.1.13,2013-05-24 18:19:00,
2013-05-24 14:24:00,48.7,44.1,29.87,ENE,73,5.0,10.0,84,0.00,,,0.45,Wunderground v.1.13,2013-05-24 18:24:00,
2013-05-24 14:29:00,48.7,44.1,29.87,NW,326,1.0,10.0,84,0.00,,,0.45,Wunderground v.1.13,2013-05-24 18:29:00,
2013-05-24 14:34:00,48.6,44.0,29.87,ENE,63,3.0,11.0,84,0.00,,,0.45,Wunderground v.1.13,2013-05-24 18:34:00,
2013-05-24 14:39:00,48.7,44.4,29.87,SSE,168,0.0,6.0,85,0.00,,,0.45,Wunderground v.1.13,2013-05-24 18:39:00,
2013-05-24 14:44:00,48.8,44.5,29.86,ESE,104,3.0,10.0,85,0.00,,,0.45,Wunderground v.1.13,2013-05-24 18:44:00,
2013-05-24 14:50:00,48.8,44.5,29.86,NNE,26,2.0,3.0,85,0.00,,,0.45,Wunderground v.1.13,2013-05-24 18:50:00,
2013-05-24 14:55:00,48.9,44.6,29.87,WNW,299,0.0,2.0,85,0.00,,,0.45,Wunderground v.1.13,2013-05-24 18:55:00,
2013-05-24 15:00:00,48.7,44.1,29.87,SSE,168,0.0,3.0,84,0.00,,,0.45,Wunderground v.1.13,2013-05-24 19:00:00,
2013-05-24 15:06:00,48.6,44.0,29.87,NE,53,2.0,3.0,84,0.00,,,0.45,Wunderground v.1.13,2013-05-24 19:06:00,
2013-05-24 15:11:00,48.5,43.9,29.87,SSE,149,3.0,3.0,84,0.00,,,0.45,Wunderground v.1.13,2013-05-24 19:11:00,
2013-05-24 15:16:00,48.5,43.6,29.87,SSW,205,7.0,7.0,83,0.00,,,0.45,Wunderground v.1.13,2013-05-24 19:16:00,
2013-05-24 15:22:00,48.3,43.7,29.87,SE,146,2.0,4.0,84,0.00,,,0.45,Wunderground v.1.13,2013-05-24 19:22:00,
2013-05-24 15:27:00,48.3,43.4,29.87,NW,319,5.0,5.0,83,0.00,,,0.45,Wunderground v.1.13,2013-05-24 19:27:00,
2013-05-24 15:32:00,48.4,43.8,29.88,NE,34,2.0,4.0,84,0.00,,,0.45,Wunderground v.1.13,2013-05-24 19:32:00,
2013-05-24 15:37:00,48.3,43.4,29.88,SSE,160,0.0,7.0,83,0.00,,,0.45,Wunderground v.1.13,2013-05-24 19:37:00,
2013-05-24 15:42:00,48.3,43.4,29.88,NE,49,3.0,11.0,83,0.00,,,0.45,Wunderground v.1.13,2013-05-24 19:42:00,
2013-05-24 15:47:00,48.2,43.6,29.88,ENE,75,2.0,4.0,84,0.00,,,0.45,Wunderground v.1.13,2013-05-24 19:47:00,
2013-05-24 15:53:00,48.1,43.5,29.88,SE,138,5.0,5.0,84,0.00,,,0.45,Wunderground v.1.13,2013-05-24 19:53:00,
2013-05-24 15:58:00,47.9,43.3,29.89,ESE,118,0.0,3.0,84,0.00,,,0.45,Wunderground v.1.13,2013-05-24 19:58:00,
2013-05-24 16:03:00,47.8,43.2,29.89,ENE,71,2.0,8.0,84,0.00,,,0.45,Wunderground v.1.13,2013-05-24 20:03:00,
2013-05-24 16:08:00,47.7,43.4,29.88,NNE,15,0.0,7.0,85,0.00,,,0.45,Wunderground v.1.13,2013-05-24 20:08:00,
2013-05-24 16:13:00,47.7,43.7,29.89,SW,217,3.0,6.0,86,0.00,,,0.45,Wunderground v.1.13,2013-05-24 20:13:00,
2013-05-24 16:19:00,47.8,43.8,29.89,SSW,200,2.0,4.0,86,0.00,,,0.45,Wunderground v.1.13,2013-05-24 20:19:00,
2013-05-24 16:24:00,47.8,43.5,29.89,North,360,2.0,12.0,85,0.00,,,0.45,Wunderground v.1.13,2013-05-24 20:24:00,
2013-05-24 16:29:00,47.7,43.4,29.89,WNW,298,3.0,11.0,85,0.00,,,0.45,Wunderground v.1.13,2013-05-24 20:29:00,
2013-05-24 16:34:00,47.6,43.3,29.89,ENE,68,2.0,6.0,85,0.00,,,0.45,Wunderground v.1.13,2013-05-24 20:34:00,
2013-05-24 16:39:00,47.6,43.3,29.89,East,101,6.0,6.0,85,0.00,,,0.45,Wunderground v.1.13,2013-05-24 20:39:00,
2013-05-24 16:44:00,47.4,42.8,29.89,WSW,246,4.0,12.0,84,0.00,,,0.45,Wunderground v.1.13,2013-05-24 20:44:00,
2013-05-24 16:49:00,47.3,42.7,29.89,East,83,0.0,9.0,84,0.00,,,0.45,Wunderground v.1.13,2013-05-24 20:49:00,
2013-05-24 16:55:00,47.3,42.7,29.90,ENE,71,5.0,5.0,84,0.00,,,0.45,Wunderground v.1.13,2013-05-24 20:55:00,
2013-05-24 17:00:00,47.1,42.2,29.90,WNW,294,2.0,4.0,83,0.00,,,0.45,Wunderground v.1.13,2013-05-24 21:00:00,
2013-05-24 17:05:00,47.0,42.4,29.90,North,9,5.0,5.0,84,0.00,,,0.45,Wunderground v.1.13,2013-05-24 21:05:00,
2013-05-24 17:11:00,46.9,42.0,29.90,NNE,22,5.0,5.0,83,0.00,,,0.45,Wunderground v.1.13,2013-05-24 21:11:00,
2013-05-24 17:16:00,46.7,42.1,29.90,South,182,6.0,6.0,84,0.00,,,0.45,Wunderground v.1.13,2013-05-24 21:16:00,
2013-05-24 17:21:00,46.6,42.0,29.90,SE,125,3.0,7.0,84,0.00,,,0.45,Wunderground v.1.13,2013-05-24 21:21:00,
2013-05-24 17:26:00,46.6,42.0,29.90,South,190,1.0,3.0,84,0.00,,,0.45,Wunderground v.1.13,2013-05-24 21:26:00,
2013-05-24 17:31:00,46.6,42.0,29.90,NNE,22,3.0,3.0,84,0.00,,,0.45,Wunderground v.1.13,2013-05-24 21:31:00,
2013-05-24 17:36:00,46.5,41.9,29.91,East,96,2.0,3.0,84,0.00,,,0.45,Wunderground v.1.13,2013-05-24 21:36:00,
2013-05-24 17:41:00,46.5,41.9,29.90,ENE,57,4.0,6.0,84,0.00,,,0.45,Wunderground v.1.13,2013-05-24 21:41:00,
2013-05-24 17:47:00,46.4,42.1,29.90,WNW,283,3.0,3.0,85,0.00,,,0.45,Wunderground v.1.13,2013-05-24 21:47:00,
2013-05-24 17:52:00,46.3,41.7,29.90,ENE,74,4.0,6.0,84,0.00,,,0.45,Wunderground v.1.13,2013-05-24 21:52:00,
2013-05-24 17:57:00,46.2,41.6,29.90,North,5,0.0,15.0,84,0.00,,,0.45,Wunderground v.1.13,2013-05-24 21:57:00,
2013-05-24 18:03:00,46.1,41.8,29.91,NNE,29,3.0,8.0,85,0.00,,,0.45,Wunderground v.1.13,2013-05-24 22:03:00,
2013-05-24 18:08:00,46.0,41.7,29.91,East,100,0.0,10.0,85,0.00,,,0.45,Wunderground v.1.13,2013-05-24 22:08:00,
2013-05-24 18:13:00,45.9,41.3,29.91,West,280,1.0,12.0,84,0.00,,,0.45,Wunderground v.1.13,2013-05-24 22:13:00,
2013-05-24 18:18:00,45.8,41.5,29.91,North,355,4.0,9.0,85,0.00,,,0.45,Wunderground v.1.13,2013-05-24 22:18:00,
2013-05-24 18:24:00,45.8,41.9,29.91,ESE,117,1.0,5.0,86,0.00,,,0.45,Wunderground v.1.13,2013-05-24 22:24:00,
2013-05-24 18:29:00,45.7,41.4,29.91,ENE,76,2.0,4.0,85,0.00,,,0.45,Wunderground v.1.13,2013-05-24 22:29:00,
2013-05-24 18:34:00,45.7,41.4,29.91,NW,309,6.0,6.0,85,0.00,,,0.45,Wunderground v.1.13,2013-05-24 22:34:00,
2013-05-24 18:39:00,45.8,41.5,29.91,NNW,347,3.0,4.0,85,0.00,,,0.45,Wunderground v.1.13,2013-05-24 22:39:00,
2013-05-24 18:44:00,45.8,41.2,29.91,NW,307,4.0,10.0,84,0.00,,,0.45,Wunderground v.1.13,2013-05-24 22:44:00,
2013-05-24 18:50:00,45.7,41.1,29.91,WSW,248,4.0,4.0,84,0.00,,,0.45,Wunderground v.1.13,2013-05-24 22:50:00,
2013-05-24 18:55:00,45.7,41.4,29.91,ENE,68,7.0,7.0,85,0.00,,,0.45,Wunderground v.1.13,2013-05-24 22:55:00,
2013-05-24 19:00:00,45.7,41.1,29.91,West,268,1.0,4.0,84,0.00,,,0.45,Wunderground v.1.13,2013-05-24 23:00:00,
2013-05-24 19:06:00,45.7,41.4,29.91,SSE,148,4.0,5.0,85,0.00,,,0.45,Wunderground v.1.13,2013-05-24 23:06:00,
2013-05-24 19:11:00,45.7,41.1,29.90,NE,52,6.0,10.0,84,0.00,,,0.45,Wunderground v.1.13,2013-05-24 23:11:00,
2013-05-24 19:16:00,45.6,41.0,29.90,East,80,0.0,3.0,84,0.00,,,0.45,Wunderground v.1.13,2013-05-24 23:16:00,
2013-05-24 19:21:00,45.6,41.4,29.91,North,351,3.0,9.0,85,0.00,,,0.45,Wunderground v.1.13,2013-05-24 23:21:00,
2013-05-24 19:26:00,45.6,41.0,29.91,NE,36,0.0,12.0,84,0.00,,,0.45,Wunderground v.1.13,2013-05-24 23:26:00,
2013-05-24 19:31:00,45.6,41.0,29.91,SSW,213,0.0,5.0,84,0.00,,,0.45,Wunderground v.1.13,2013-05-24 23:31:00,
2013-05-24 19:36:00,45.6,41.0,29.91,West,280,2.0,5.0,84,0.00,,,0.45,Wunderground v.1.13,2013-05-24 23:36:00,
2013-05-24 19:42:00,45.5,41.3,29.91,ENE,70,3.0,4.0,85,0.00,,,0.45,Wunderground v.1.13,2013-05-24 23:42:00,
2013-05-24 19:47:00,45.4,41.2,29.92,SW,234,3.0,7.0,85,0.00,,,0.45,Wunderground v.1.13,2013-05-24 23:47:00,
2013-05-24 19:52:00,45.4,41.2,29.92,WNW,291,2.0,3.0,85,0.00,,,0.45,Wunderground v.1.13,2013-05-24 23:52:00,
2013-05-24 19:57:00,45.3,41.1,29.92,NE,47,4.0,6.0,85,0.00,,,0.45,Wunderground v.1.13,2013-05-24 23:57:00,
2013-05-24 20:02:00,45.2,41.0,29.92,ENE,65,3.0,7.0,85,0.00,,,0.45,Wunderground v.1.13,2013-05-25 00:02:00,
2013-05-24 20:08:00,45.1,41.2,29.92,NE,38,3.0,5.0,86,0.00,,,0.45,Wunderground v.1.13,2013-05-25 00:08:00,
2013-05-24 20:13:00,45.0,41.4,29.91,WSW,242,3.0,7.0,87,0.00,,,0.45,Wunderground v.1.13,2013-05-25 00:13:00,
2013-05-24 20:18:00,45.0,41.4,29.91,ENE,65,8.0,8.0,87,0.00,,,0.45,Wunderground v.1.13,2013-05-25 00:18:00,
2013-05-24 20:23:00,44.9,41.3,29.91,SE,138,2.0,9.0,87,0.00,,,0.45,Wunderground v.1.13,2013-05-25 00:23:00,
2013-05-24 20:29:00,44.7,41.4,29.92,West,259,1.0,6.0,88,0.00,,,0.45,Wunderground v.1.13,2013-05-25 00:29:00,
2013-05-24 20:34:00,44.6,41.3,29.92,East,80,5.0,5.0,88,0.00,,,0.45,Wunderground v.1.13,2013-05-25 00:34:00,
2013-05-24 20:39:00,44.5,41.5,29.92,NNE,17,0.0,6.0,89,0.00,,,0.45,Wunderground v.1.13,2013-05-25 00:39:00,
2013-05-24 20:45:00,44.4,41.4,29.92,SSW,209,4.0,4.0,89,0.00,,,0.45,Wunderground v.1.13,2013-05-25 00:45:00,
2013-05-24 20:50:00,44.4,41.4,29.92,ENE,74,2.0,2.0,89,0.00,,,0.46,Wunderground v.1.13,2013-05-25 00:50:00,
2013-05-24 20:55:00,44.4,41.7,29.92,North,360,1.0,2.0,90,0.00,,,0.46,Wunderground v.1.13,2013-05-25 00:55:00,
2013-05-24 21:00:00,44.3,41.6,29.92,NNE,24,5.0,9.0,90,0.00,,,0.46,Wunderground v.1.13,2013-05-25 01:00:00,
2013-05-24 21:05:00,44.3,41.6,29.92,NNE,33,4.0,5.0,90,0.04,,,0.47,Wunderground v.1.13,2013-05-25 01:05:00,
2013-05-24 21:10:00,44.2,41.5,29.92,NNW,343,4.0,4.0,90,0.04,,,0.47,Wunderground v.1.13,2013-05-25 01:10:00,
2013-05-24 21:16:00,44.2,41.5,29.92,East,101,4.0,5.0,90,0.04,,,0.47,Wunderground v.1.13,2013-05-25 01:16:00,
2013-05-24 21:21:00,44.2,41.5,29.92,North,355,4.0,6.0,90,0.04,,,0.48,Wunderground v.1.13,2013-05-25 01:21:00,
2013-05-24 21:26:00,44.2,41.5,29.92,SW,230,4.0,5.0,90,0.04,,,0.48,Wunderground v.1.13,2013-05-25 01:26:00,
2013-05-24 21:31:00,44.2,41.5,29.93,NNW,331,3.0,10.0,90,0.04,,,0.48,Wunderground v.1.13,2013-05-25 01:31:00,
2013-05-24 21:36:00,44.2,41.7,29.93,SSW,196,0.0,2.0,91,0.00,,,0.48,Wunderground v.1.13,2013-05-25 01:36:00,
2013-05-24 21:41:00,44.3,41.8,29.95,North,5,0.0,3.0,91,0.00,,,0.48,Wunderground v.1.13,2013-05-25 01:41:00,
2013-05-24 21:46:00,44.3,41.6,29.95,West,265,0.0,7.0,90,0.00,,,0.48,Wunderground v.1.13,2013-05-25 01:46:00,
2013-05-24 21:51:00,44.3,41.6,29.92,East,82,5.0,6.0,90,0.00,,,0.49,Wunderground v.1.13,2013-05-25 01:51:00,
2013-05-24 21:56:00,44.2,41.7,29.93,North,360,3.0,8.0,91,0.15,,,0.50,Wunderground v.1.13,2013-05-25 01:56:00,
2013-05-24 22:01:00,44.2,41.7,29.93,NNE,28,3.0,17.0,91,0.13,,,0.51,Wunderground v.1.13,2013-05-25 02:01:00,
2013-05-24 22:07:00,44.2,41.7,29.93,NE,53,2.0,7.0,91,0.09,,,0.52,Wunderground v.1.13,2013-05-25 02:07:00,
2013-05-24 22:12:00,44.2,41.7,29.93,East,90,0.0,3.0,91,0.07,,,0.52,Wunderground v.1.13,2013-05-25 02:12:00,
2013-05-24 22:17:00,44.1,41.6,29.94,North,350,1.0,4.0,91,0.06,,,0.53,Wunderground v.1.13,2013-05-25 02:17:00,
2013-05-24 22:22:00,44.2,41.7,29.94,South,185,1.0,3.0,91,0.12,,,0.54,Wunderground v.1.13,2013-05-25 02:22:00,
2013-05-24 22:28:00,44.2,41.7,29.94,NNE,32,5.0,6.0,91,0.07,,,0.54,Wunderground v.1.13,2013-05-25 02:28:00,
2013-05-24 22:33:00,44.1,41.6,29.93,ENE,57,3.0,7.0,91,0.04,,,0.55,Wunderground v.1.13,2013-05-25 02:33:00,
2013-05-24 22:38:00,44.1,41.6,29.93,ESE,106,0.0,4.0,91,0.04,,,0.55,Wunderground v.1.13,2013-05-25 02:38:00,
2013-05-24 22:43:00,44.1,41.6,29.93,NNE,26,2.0,9.0,91,0.04,,,0.55,Wunderground v.1.13,2013-05-25 02:43:00,
2013-05-24 22:49:00,44.1,41.6,29.93,ESE,117,3.0,5.0,91,0.04,,,0.55,Wunderground v.1.13,2013-05-25 02:49:00,
2013-05-24 22:54:00,44.1,41.6,29.93,North,360,2.0,7.0,91,0.00,,,0.55,Wunderground v.1.13,2013-05-25 02:54:00,
2013-05-24 22:59:00,44.1,41.6,29.94,North,9,4.0,6.0,91,0.00,,,0.56,Wunderground v.1.13,2013-05-25 02:59:00,
2013-05-24 23:04:00,44.2,41.7,29.94,North,360,1.0,4.0,91,0.00,,,0.56,Wunderground v.1.13,2013-05-25 03:04:00,
2013-05-24 23:10:00,44.1,41.6,29.94,NE,37,0.0,2.0,91,0.00,,,0.56,Wunderground v.1.13,2013-05-25 03:10:00,
2013-05-24 23:15:00,44.1,41.6,29.94,NE,34,6.0,6.0,91,0.00,,,0.56,Wunderground v.1.13,2013-05-25 03:15:00,
2013-05-24 23:20:00,44.1,41.6,29.94,NE,42,0.0,3.0,91,0.00,,,0.56,Wunderground v.1.13,2013-05-25 03:20:00,
2013-05-24 23:25:00,44.1,41.6,29.95,NW,323,2.0,3.0,91,0.00,,,0.56,Wunderground v.1.13,2013-05-25 03:25:00,
2013-05-24 23:30:00,44.1,41.6,29.94,ENE,66,0.0,2.0,91,0.00,,,0.56,Wunderground v.1.13,2013-05-25 03:30:00,
2013-05-24 23:35:00,44.0,41.5,29.95,WNW,283,0.0,2.0,91,0.00,,,0.57,Wunderground v.1.13,2013-05-25 03:35:00,
2013-05-24 23:40:00,44.0,41.5,29.94,ENE,60,2.0,4.0,91,0.08,,,0.58,Wunderground v.1.13,2013-05-25 03:40:00,
2013-05-24 23:45:00,43.9,41.4,29.94,SSE,148,5.0,7.0,91,0.11,,,0.58,Wunderground v.1.13,2013-05-25 03:45:00,
2013-05-24 23:50:00,43.9,41.4,29.94,North,355,1.0,5.0,91,0.11,,,0.59,Wunderground v.1.13,2013-05-25 03:50:00,
2013-05-24 23:55:00,43.9,41.4,29.94,SSE,153,4.0,6.0,91,0.06,,,0.59,Wunderground v.1.13,2013-05-25 03:55:00,